sensor_id;sensor_type;location;lat;lon;timestamp;pressure;altitude;pressure_sealevel;temperature;humidity
72038;BME280;59900;50.788;12.904;2022-09-09T00:01:56;97215.41;;;15.56;71.16
72038;BME280;59900;50.788;12.904;2022-09-09T00:04:29;97210.91;;;15.57;71.48
72038;BME280;59900;50.788;12.904;2022-09-09T00:07:05;97213.56;;;15.57;71.34
72038;BME280;59900;50.788;12.904;2022-09-09T00:09:49;97214.84;;;15.54;71.17
72038;BME280;59900;50.788;12.904;2022-09-09T00:14:58;97208.63;;;15.49;71.32
72038;BME280;59900;50.788;12.904;2022-09-09T00:18:36;97205.63;;;15.45;71.24
72038;BME280;59900;50.788;12.904;2022-09-09T00:21:03;97200.31;;;15.45;71.33
72038;BME280;59900;50.788;12.904;2022-09-09T00:23:35;97201.59;;;15.43;71.90
72038;BME280;59900;50.788;12.904;2022-09-09T00:26:11;97197.56;;;15.40;71.50
72038;BME280;59900;50.788;12.904;2022-09-09T00:28:50;97193.88;;;15.41;71.35
72038;BME280;59900;50.788;12.904;2022-09-09T00:31:26;97195.50;;;15.42;71.55
72038;BME280;59900;50.788;12.904;2022-09-09T00:33:53;97190.44;;;15.41;71.57
72038;BME280;59900;50.788;12.904;2022-09-09T00:36:22;97191.81;;;15.43;71.65
72038;BME280;59900;50.788;12.904;2022-09-09T00:38:59;97189.97;;;15.44;71.47
72038;BME280;59900;50.788;12.904;2022-09-09T00:44:20;97188.56;;;15.41;71.77
72038;BME280;59900;50.788;12.904;2022-09-09T00:47:09;97181.56;;;15.35;71.82
72038;BME280;59900;50.788;12.904;2022-09-09T00:57:54;97201.78;;;15.13;73.13
72038;BME280;59900;50.788;12.904;2022-09-09T01:00:24;97204.66;;;15.11;72.98
72038;BME280;59900;50.788;12.904;2022-09-09T01:08:00;97190.84;;;15.09;73.38
72038;BME280;59900;50.788;12.904;2022-09-09T01:10:41;97191.88;;;15.08;73.07
72038;BME280;59900;50.788;12.904;2022-09-09T01:13:23;97196.38;;;15.08;73.18
72038;BME280;59900;50.788;12.904;2022-09-09T01:15:50;97206.16;;;15.07;73.23
72038;BME280;59900;50.788;12.904;2022-09-09T01:18:21;97204.78;;;15.05;72.81
72038;BME280;59900;50.788;12.904;2022-09-09T01:24:05;97200.16;;;15.00;73.56
72038;BME280;59900;50.788;12.904;2022-09-09T01:26:41;97200.75;;;15.02;73.08
72038;BME280;59900;50.788;12.904;2022-09-09T01:29:09;97196.84;;;15.05;73.38
72038;BME280;59900;50.788;12.904;2022-09-09T01:31:39;97196.84;;;15.05;72.68
72038;BME280;59900;50.788;12.904;2022-09-09T01:34:14;97196.59;;;15.06;72.54
72038;BME280;59900;50.788;12.904;2022-09-09T01:36:46;97194.75;;;15.07;73.39
72038;BME280;59900;50.788;12.904;2022-09-09T01:39:16;97196.84;;;15.05;73.29
72038;BME280;59900;50.788;12.904;2022-09-09T01:41:42;97195.00;;;15.05;73.21
72038;BME280;59900;50.788;12.904;2022-09-09T01:44:08;97196.03;;;15.04;73.07
72038;BME280;59900;50.788;12.904;2022-09-09T01:46:34;97189.94;;;15.04;73.22
72038;BME280;59900;50.788;12.904;2022-09-09T01:49:02;97191.19;;;15.01;73.35
72038;BME280;59900;50.788;12.904;2022-09-09T01:51:29;97190.63;;;14.99;73.04
72038;BME280;59900;50.788;12.904;2022-09-09T01:53:55;97181.63;;;15.00;73.20
72038;BME280;59900;50.788;12.904;2022-09-09T01:56:40;97187.75;;;15.01;73.33
72038;BME280;59900;50.788;12.904;2022-09-09T01:59:34;97183.81;;;15.03;73.11
72038;BME280;59900;50.788;12.904;2022-09-09T02:02:18;97184.63;;;15.04;72.96
72038;BME280;59900;50.788;12.904;2022-09-09T02:07:41;97186.25;;;15.05;72.88
72038;BME280;59900;50.788;12.904;2022-09-09T02:10:18;97189.94;;;15.04;72.82
72038;BME280;59900;50.788;12.904;2022-09-09T02:12:47;97188.56;;;15.01;72.92
72038;BME280;59900;50.788;12.904;2022-09-09T02:18:01;97180.63;;;15.01;72.97
72038;BME280;59900;50.788;12.904;2022-09-09T02:20:32;97184.88;;;15.02;72.66
72038;BME280;59900;50.788;12.904;2022-09-09T02:22:58;97182.44;;;15.01;73.13
72038;BME280;59900;50.788;12.904;2022-09-09T02:25:26;97182.44;;;15.01;72.83
72038;BME280;59900;50.788;12.904;2022-09-09T02:27:53;97181.44;;;15.02;72.86
72038;BME280;59900;50.788;12.904;2022-09-09T02:30:19;97188.56;;;15.01;72.48
72038;BME280;59900;50.788;12.904;2022-09-09T02:32:46;97187.19;;;14.99;72.80
72038;BME280;59900;50.788;12.904;2022-09-09T02:35:16;97190.84;;;14.98;72.95
72038;BME280;59900;50.788;12.904;2022-09-09T02:37:44;97183.16;;;14.96;72.94
72038;BME280;59900;50.788;12.904;2022-09-09T02:40:12;97187.41;;;14.97;72.92
72038;BME280;59900;50.788;12.904;2022-09-09T02:42:40;97184.75;;;14.97;72.60
72038;BME280;59900;50.788;12.904;2022-09-09T02:45:07;97184.44;;;14.94;73.31
72038;BME280;59900;50.788;12.904;2022-09-09T02:47:43;97188.91;;;14.93;73.30
72038;BME280;59900;50.788;12.904;2022-09-09T02:55:39;97170.84;;;14.90;72.62
72038;BME280;59900;50.788;12.904;2022-09-09T02:58:08;97177.72;;;14.91;72.52
72038;BME280;59900;50.788;12.904;2022-09-09T03:00:37;97172.69;;;14.90;72.97
72038;BME280;59900;50.788;12.904;2022-09-09T03:03:05;97175.91;;;14.92;72.74
72038;BME280;59900;50.788;12.904;2022-09-09T03:05:30;97169.22;;;14.89;72.80
72038;BME280;59900;50.788;12.904;2022-09-09T03:07:55;97167.41;;;14.90;72.34
72038;BME280;59900;50.788;12.904;2022-09-09T03:10:21;97176.16;;;14.90;72.35
72038;BME280;59900;50.788;12.904;2022-09-09T03:12:46;97170.59;;;14.92;72.34
72038;BME280;59900;50.788;12.904;2022-09-09T03:15:12;97174.88;;;14.93;72.22
72038;BME280;59900;50.788;12.904;2022-09-09T03:17:38;97176.72;;;14.92;72.15
72038;BME280;59900;50.788;12.904;2022-09-09T03:20:03;97171.41;;;14.92;72.18
72038;BME280;59900;50.788;12.904;2022-09-09T03:22:29;97175.91;;;14.92;72.40
72038;BME280;59900;50.788;12.904;2022-09-09T03:24:54;97174.31;;;14.91;72.62
72038;BME280;59900;50.788;12.904;2022-09-09T03:27:20;97183.03;;;14.91;72.39
72038;BME280;59900;50.788;12.904;2022-09-09T03:29:46;97183.63;;;14.93;72.50
72038;BME280;59900;50.788;12.904;2022-09-09T03:32:11;97184.91;;;14.91;72.12
72038;BME280;59900;50.788;12.904;2022-09-09T03:34:37;97182.25;;;14.91;71.80
72038;BME280;59900;50.788;12.904;2022-09-09T03:37:05;97174.53;;;14.89;72.08
72038;BME280;59900;50.788;12.904;2022-09-09T03:39:31;97173.50;;;14.90;71.97
72038;BME280;59900;50.788;12.904;2022-09-09T03:41:56;97178.31;;;14.93;72.58
72038;BME280;59900;50.788;12.904;2022-09-09T03:44:21;97176.03;;;14.85;73.54
72038;BME280;59900;50.788;12.904;2022-09-09T03:46:46;97177.53;;;14.81;74.12
72038;BME280;59900;50.788;12.904;2022-09-09T03:49:12;97176.63;;;14.76;74.50
72038;BME280;59900;50.788;12.904;2022-09-09T03:51:37;97178.34;;;14.70;75.13
72038;BME280;59900;50.788;12.904;2022-09-09T03:54:03;97178.66;;;14.62;nan
72038;BME280;59900;50.788;12.904;2022-09-09T03:56:30;97178.56;;;14.57;75.83
72038;BME280;59900;50.788;12.904;2022-09-09T03:58:55;97181.09;;;14.52;76.11
72038;BME280;59900;50.788;12.904;2022-09-09T04:01:20;97181.44;;;14.44;76.74
72038;BME280;59900;50.788;12.904;2022-09-09T04:03:46;97178.91;;;14.37;77.08
72038;BME280;59900;50.788;12.904;2022-09-09T04:06:12;97180.00;;;14.30;77.38
72038;BME280;59900;50.788;12.904;2022-09-09T04:08:39;97174.69;;;14.30;77.48
72038;BME280;59900;50.788;12.904;2022-09-09T04:11:05;97179.66;;;14.26;78.17
72038;BME280;59900;50.788;12.904;2022-09-09T04:13:32;97171.38;;;14.23;78.25
72038;BME280;59900;50.788;12.904;2022-09-09T04:16:00;97176.31;;;14.19;78.42
72038;BME280;59900;50.788;12.904;2022-09-09T04:18:26;97175.13;;;14.15;78.67
72038;BME280;59900;50.788;12.904;2022-09-09T04:20:53;97159.16;;;14.10;79.08
72038;BME280;59900;50.788;12.904;2022-09-09T04:23:20;97167.53;;;14.07;79.24
72038;BME280;59900;50.788;12.904;2022-09-09T04:25:47;97172.25;;;14.05;79.61
72038;BME280;59900;50.788;12.904;2022-09-09T04:28:13;97152.59;;;14.01;80.09
72038;BME280;59900;50.788;12.904;2022-09-09T04:30:39;97158.69;;;14.01;80.00
72038;BME280;59900;50.788;12.904;2022-09-09T04:33:05;97172.91;;;14.00;79.80
72038;BME280;59900;50.788;12.904;2022-09-09T04:35:32;97171.91;;;14.01;79.55
72038;BME280;59900;50.788;12.904;2022-09-09T04:37:57;97181.09;;;13.99;79.90
72038;BME280;59900;50.788;12.904;2022-09-09T04:40:22;97179.47;;;13.98;79.99
72038;BME280;59900;50.788;12.904;2022-09-09T04:42:47;97180.84;;;14.00;80.73
72038;BME280;59900;50.788;12.904;2022-09-09T04:45:13;97182.72;;;14.00;80.57
72038;BME280;59900;50.788;12.904;2022-09-09T04:47:38;97188.56;;;14.02;81.08
72038;BME280;59900;50.788;12.904;2022-09-09T04:50:04;97180.63;;;14.02;80.50
72038;BME280;59900;50.788;12.904;2022-09-09T04:52:30;97179.63;;;14.03;80.60
72038;BME280;59900;50.788;12.904;2022-09-09T04:54:55;97180.41;;;14.03;80.73
72038;BME280;59900;50.788;12.904;2022-09-09T04:57:20;97181.78;;;14.06;80.62
72038;BME280;59900;50.788;12.904;2022-09-09T04:59:46;97180.53;;;14.09;80.61
72038;BME280;59900;50.788;12.904;2022-09-09T05:02:11;97181.56;;;14.08;80.61
72038;BME280;59900;50.788;12.904;2022-09-09T05:04:36;97189.03;;;14.11;80.97
72038;BME280;59900;50.788;12.904;2022-09-09T05:07:02;97184.78;;;14.10;80.79
72038;BME280;59900;50.788;12.904;2022-09-09T05:09:27;97188.69;;;14.07;80.34
72038;BME280;59900;50.788;12.904;2022-09-09T05:11:52;97190.06;;;14.10;80.55
72038;BME280;59900;50.788;12.904;2022-09-09T05:14:18;97194.53;;;14.09;80.78
72038;BME280;59900;50.788;12.904;2022-09-09T05:16:46;97188.22;;;14.10;80.92
72038;BME280;59900;50.788;12.904;2022-09-09T05:19:12;97189.84;;;14.11;80.44
72038;BME280;59900;50.788;12.904;2022-09-09T05:21:37;97191.91;;;14.09;80.74
72038;BME280;59900;50.788;12.904;2022-09-09T05:24:03;97193.06;;;14.13;79.86
72038;BME280;59900;50.788;12.904;2022-09-09T05:26:28;97189.97;;;14.16;80.22
72038;BME280;59900;50.788;12.904;2022-09-09T05:28:54;97196.19;;;14.22;80.09
72038;BME280;59900;50.788;12.904;2022-09-09T05:31:20;97202.03;;;14.24;80.18
72038;BME280;59900;50.788;12.904;2022-09-09T05:33:47;97197.91;;;14.28;80.30
72038;BME280;59900;50.788;12.904;2022-09-09T05:36:15;97196.03;;;14.35;80.06
72038;BME280;59900;50.788;12.904;2022-09-09T05:38:42;97199.59;;;14.40;80.27
72038;BME280;59900;50.788;12.904;2022-09-09T05:41:08;97195.44;;;14.44;80.58
72038;BME280;59900;50.788;12.904;2022-09-09T05:43:35;97194.19;;;14.47;80.42
72038;BME280;59900;50.788;12.904;2022-09-09T05:46:06;97198.22;;;14.49;80.70
72038;BME280;59900;50.788;12.904;2022-09-09T05:48:32;97196.16;;;14.51;80.23
72038;BME280;59900;50.788;12.904;2022-09-09T05:51:02;97193.50;;;14.51;80.78
72038;BME280;59900;50.788;12.904;2022-09-09T05:53:28;97199.16;;;14.55;80.36
72038;BME280;59900;50.788;12.904;2022-09-09T05:56:08;97199.03;;;14.62;80.53
72038;BME280;59900;50.788;12.904;2022-09-09T05:58:37;97201.78;;;14.67;80.63
72038;BME280;59900;50.788;12.904;2022-09-09T06:01:06;97203.53;;;14.73;80.03
72038;BME280;59900;50.788;12.904;2022-09-09T06:03:33;97213.19;;;14.79;79.67
72038;BME280;59900;50.788;12.904;2022-09-09T06:06:00;97201.09;;;14.83;78.52
72038;BME280;59900;50.788;12.904;2022-09-09T06:08:25;97210.66;;;14.95;78.74
72038;BME280;59900;50.788;12.904;2022-09-09T06:10:51;97212.00;;;15.09;78.01
72038;BME280;59900;50.788;12.904;2022-09-09T06:13:17;97219.63;;;15.18;78.62
72038;BME280;59900;50.788;12.904;2022-09-09T06:15:50;97216.34;;;15.27;77.22
72038;BME280;59900;50.788;12.904;2022-09-09T06:18:16;97214.84;;;15.43;78.12
72038;BME280;59900;50.788;12.904;2022-09-09T06:20:43;97209.44;;;15.49;78.38
72038;BME280;59900;50.788;12.904;2022-09-09T06:23:08;97206.16;;;15.59;77.74
72038;BME280;59900;50.788;12.904;2022-09-09T06:25:33;97212.41;;;15.64;78.33
72038;BME280;59900;50.788;12.904;2022-09-09T06:27:59;97202.22;;;15.73;78.65
72038;BME280;59900;50.788;12.904;2022-09-09T06:30:24;97209.22;;;15.79;78.95
72038;BME280;59900;50.788;12.904;2022-09-09T06:32:49;97211.97;;;15.84;78.20
72038;BME280;59900;50.788;12.904;2022-09-09T06:35:16;97206.53;;;15.91;78.25
72038;BME280;59900;50.788;12.904;2022-09-09T06:37:44;97207.66;;;15.95;77.01
72038;BME280;59900;50.788;12.904;2022-09-09T06:40:10;97197.38;;;15.98;76.83
72038;BME280;59900;50.788;12.904;2022-09-09T06:42:36;97206.69;;;16.01;76.44
72038;BME280;59900;50.788;12.904;2022-09-09T06:45:01;97200.69;;;16.05;76.14
72038;BME280;59900;50.788;12.904;2022-09-09T06:47:28;97205.84;;;16.12;76.04
72038;BME280;59900;50.788;12.904;2022-09-09T06:49:53;97208.13;;;16.20;75.05
72038;BME280;59900;50.788;12.904;2022-09-09T06:52:18;97215.13;;;16.26;74.88
72038;BME280;59900;50.788;12.904;2022-09-09T06:54:44;97201.94;;;16.31;74.08
72038;BME280;59900;50.788;12.904;2022-09-09T06:57:10;97203.84;;;16.36;73.36
72038;BME280;59900;50.788;12.904;2022-09-09T06:59:35;97201.53;;;16.39;73.29
72038;BME280;59900;50.788;12.904;2022-09-09T07:02:01;97213.59;;;16.47;73.04
72038;BME280;59900;50.788;12.904;2022-09-09T07:04:26;97207.25;;;16.48;73.55
72038;BME280;59900;50.788;12.904;2022-09-09T07:06:51;97205.94;;;16.50;73.12
72038;BME280;59900;50.788;12.904;2022-09-09T07:09:17;97207.13;;;16.54;72.91
72038;BME280;59900;50.788;12.904;2022-09-09T07:11:51;97209.63;;;16.61;73.11
72038;BME280;59900;50.788;12.904;2022-09-09T07:14:20;97206.22;;;16.65;73.55
72038;BME280;59900;50.788;12.904;2022-09-09T07:16:46;97208.16;;;16.70;72.81
72038;BME280;59900;50.788;12.904;2022-09-09T07:19:12;97213.28;;;16.76;73.11
72038;BME280;59900;50.788;12.904;2022-09-09T07:21:38;97214.47;;;16.86;73.33
72038;BME280;59900;50.788;12.904;2022-09-09T07:24:05;97217.78;;;16.93;73.26
72038;BME280;59900;50.788;12.904;2022-09-09T07:26:32;97216.31;;;17.02;72.91
72038;BME280;59900;50.788;12.904;2022-09-09T07:28:58;97213.78;;;17.12;72.96
72038;BME280;59900;50.788;12.904;2022-09-09T07:31:29;97217.63;;;17.21;73.00
72038;BME280;59900;50.788;12.904;2022-09-09T07:33:58;97226.47;;;17.26;72.77
72038;BME280;59900;50.788;12.904;2022-09-09T07:36:29;97218.88;;;17.35;72.68
72038;BME280;59900;50.788;12.904;2022-09-09T07:38:57;97228.03;;;17.44;72.59
72038;BME280;59900;50.788;12.904;2022-09-09T07:41:32;97220.22;;;17.54;72.24
72038;BME280;59900;50.788;12.904;2022-09-09T07:43:59;97228.81;;;17.61;72.22
72038;BME280;59900;50.788;12.904;2022-09-09T07:46:26;97226.72;;;17.63;72.11
72038;BME280;59900;50.788;12.904;2022-09-09T07:48:56;97227.31;;;17.70;71.23
72038;BME280;59900;50.788;12.904;2022-09-09T07:51:26;97226.91;;;17.78;71.22
72038;BME280;59900;50.788;12.904;2022-09-09T07:53:54;97230.97;;;17.86;71.70
72038;BME280;59900;50.788;12.904;2022-09-09T07:56:20;97234.47;;;17.91;71.18
72038;BME280;59900;50.788;12.904;2022-09-09T07:58:50;97228.97;;;17.98;71.60
72038;BME280;59900;50.788;12.904;2022-09-09T08:01:18;97234.91;;;18.05;71.02
72038;BME280;59900;50.788;12.904;2022-09-09T08:03:45;97238.16;;;18.12;71.11
72038;BME280;59900;50.788;12.904;2022-09-09T08:06:11;97250.75;;;18.22;71.68
72038;BME280;59900;50.788;12.904;2022-09-09T08:08:38;97244.47;;;18.33;71.17
72038;BME280;59900;50.788;12.904;2022-09-09T08:11:06;97243.22;;;18.40;71.25
72038;BME280;59900;50.788;12.904;2022-09-09T08:13:33;97246.75;;;18.46;70.24
72038;BME280;59900;50.788;12.904;2022-09-09T08:16:10;97239.34;;;18.53;70.32
72038;BME280;59900;50.788;12.904;2022-09-09T08:18:36;97250.81;;;18.54;69.88
72038;BME280;59900;50.788;12.904;2022-09-09T08:21:13;97247.66;;;18.57;69.76
72038;BME280;59900;50.788;12.904;2022-09-09T08:23:40;97246.59;;;18.58;68.94
72038;BME280;59900;50.788;12.904;2022-09-09T08:26:11;97247.13;;;18.60;68.45
72038;BME280;59900;50.788;12.904;2022-09-09T08:28:37;97252.25;;;18.66;68.79
72038;BME280;59900;50.788;12.904;2022-09-09T08:31:14;97244.81;;;18.68;67.19
72038;BME280;59900;50.788;12.904;2022-09-09T08:33:41;97249.31;;;18.68;67.66
72038;BME280;59900;50.788;12.904;2022-09-09T08:36:10;97243.75;;;18.69;67.03
72038;BME280;59900;50.788;12.904;2022-09-09T08:38:36;97251.75;;;18.69;67.34
72038;BME280;59900;50.788;12.904;2022-09-09T08:44:02;97248.63;;;18.77;67.09
72038;BME280;59900;50.788;12.904;2022-09-09T08:47:04;97251.31;;;18.82;66.48
72038;BME280;59900;50.788;12.904;2022-09-09T08:50:52;97251.88;;;18.84;65.03
72038;BME280;59900;50.788;12.904;2022-09-09T08:58:17;97247.94;;;18.92;63.91
72038;BME280;59900;50.788;12.904;2022-09-09T09:03:43;97260.41;;;18.86;63.75
72038;BME280;59900;50.788;12.904;2022-09-09T09:09:08;97259.81;;;18.79;63.02
72038;BME280;59900;50.788;12.904;2022-09-09T09:11:38;97256.13;;;18.85;64.59
72038;BME280;59900;50.788;12.904;2022-09-09T09:14:22;97263.63;;;18.93;63.99
72038;BME280;59900;50.788;12.904;2022-09-09T09:17:06;97248.53;;;19.04;64.52
72038;BME280;59900;50.788;12.904;2022-09-09T09:19:35;97250.50;;;19.19;65.16
72038;BME280;59900;50.788;12.904;2022-09-09T09:22:10;97268.97;;;19.30;64.50
72038;BME280;59900;50.788;12.904;2022-09-09T09:25:01;97246.94;;;19.40;63.08
72038;BME280;59900;50.788;12.904;2022-09-09T09:27:38;97244.59;;;19.58;64.55
72038;BME280;59900;50.788;12.904;2022-09-09T09:30:19;97240.38;;;19.73;63.03
72038;BME280;59900;50.788;12.904;2022-09-09T09:33:15;97233.75;;;19.75;62.20
72038;BME280;59900;50.788;12.904;2022-09-09T09:35:43;97232.16;;;19.79;61.08
72038;BME280;59900;50.788;12.904;2022-09-09T09:38:19;97234.84;;;19.84;61.09
72038;BME280;59900;50.788;12.904;2022-09-09T09:40:55;97241.25;;;19.93;62.14
72038;BME280;59900;50.788;12.904;2022-09-09T09:43:28;97240.22;;;19.94;61.96
72038;BME280;59900;50.788;12.904;2022-09-09T09:45:54;97235.69;;;19.90;61.76
72038;BME280;59900;50.788;12.904;2022-09-09T09:48:19;97233.78;;;19.90;62.92
72038;BME280;59900;50.788;12.904;2022-09-09T09:50:53;97234.34;;;19.92;62.37
72038;BME280;59900;50.788;12.904;2022-09-09T09:53:24;97226.06;;;19.94;62.59
72038;BME280;59900;50.788;12.904;2022-09-09T09:55:54;97233.00;;;19.90;62.11
72038;BME280;59900;50.788;12.904;2022-09-09T09:58:20;97242.34;;;19.92;61.32
72038;BME280;59900;50.788;12.904;2022-09-09T10:00:50;97246.06;;;19.86;57.88
72038;BME280;59900;50.788;12.904;2022-09-09T10:03:22;97246.81;;;19.72;57.83
72038;BME280;59900;50.788;12.904;2022-09-09T10:05:48;97239.56;;;19.62;58.22
72038;BME280;59900;50.788;12.904;2022-09-09T10:08:16;97243.84;;;19.63;58.78
72038;BME280;59900;50.788;12.904;2022-09-09T10:11:22;97242.50;;;19.61;56.65
72038;BME280;59900;50.788;12.904;2022-09-09T10:14:11;97235.81;;;19.58;55.94
72038;BME280;59900;50.788;12.904;2022-09-09T10:19:36;97238.47;;;19.58;55.61
72038;BME280;59900;50.788;12.904;2022-09-09T10:22:11;97240.88;;;19.60;55.86
72038;BME280;59900;50.788;12.904;2022-09-09T10:27:20;97231.63;;;19.72;56.44
72038;BME280;59900;50.788;12.904;2022-09-09T10:32:41;97223.63;;;19.82;56.47
72038;BME280;59900;50.788;12.904;2022-09-09T10:38:14;97215.91;;;19.91;55.79
72038;BME280;59900;50.788;12.904;2022-09-09T10:46:05;97215.72;;;20.23;56.37
72038;BME280;59900;50.788;12.904;2022-09-09T10:48:50;97236.06;;;20.34;56.12
72038;BME280;59900;50.788;12.904;2022-09-09T10:51:51;97223.25;;;20.31;56.17
72038;BME280;59900;50.788;12.904;2022-09-09T10:57:12;97224.00;;;20.16;57.31
72038;BME280;59900;50.788;12.904;2022-09-09T10:59:43;97226.38;;;20.07;56.89
72038;BME280;59900;50.788;12.904;2022-09-09T11:02:26;97227.44;;;20.06;56.21
72038;BME280;59900;50.788;12.904;2022-09-09T11:04:56;97238.94;;;20.17;56.07
72038;BME280;59900;50.788;12.904;2022-09-09T11:07:29;97219.19;;;20.23;56.07
72038;BME280;59900;50.788;12.904;2022-09-09T11:10:03;97217.91;;;20.31;54.94
72038;BME280;59900;50.788;12.904;2022-09-09T11:12:35;97208.31;;;20.40;54.73
72038;BME280;59900;50.788;12.904;2022-09-09T11:15:08;97219.50;;;20.52;54.81
72038;BME280;59900;50.788;12.904;2022-09-09T11:17:43;97235.81;;;20.55;53.77
72038;BME280;59900;50.788;12.904;2022-09-09T11:20:13;97216.31;;;20.65;52.75
72038;BME280;59900;50.788;12.904;2022-09-09T11:22:48;97219.78;;;20.71;53.21
72038;BME280;59900;50.788;12.904;2022-09-09T11:25:20;97218.19;;;20.69;53.78
72038;BME280;59900;50.788;12.904;2022-09-09T11:30:42;97213.09;;;20.73;54.32
72038;BME280;59900;50.788;12.904;2022-09-09T11:33:41;97208.31;;;20.80;55.46
72038;BME280;59900;50.788;12.904;2022-09-09T11:36:31;97213.63;;;20.90;55.54
72038;BME280;59900;50.788;12.904;2022-09-09T11:41:49;97209.09;;;20.76;54.36
72038;BME280;59900;50.788;12.904;2022-09-09T11:44:26;97216.59;;;20.84;54.74
72038;BME280;59900;50.788;12.904;2022-09-09T11:46:53;97214.44;;;20.96;54.52
72038;BME280;59900;50.788;12.904;2022-09-09T11:49:26;97206.94;;;21.03;54.98
72038;BME280;59900;50.788;12.904;2022-09-09T11:51:53;97209.88;;;21.11;55.51
72038;BME280;59900;50.788;12.904;2022-09-09T11:54:31;97208.81;;;21.12;56.38
72038;BME280;59900;50.788;12.904;2022-09-09T11:56:57;97213.34;;;21.07;55.43
72038;BME280;59900;50.788;12.904;2022-09-09T11:59:32;97210.69;;;20.97;55.95
72038;BME280;59900;50.788;12.904;2022-09-09T12:02:14;97209.63;;;20.93;57.27
72038;BME280;59900;50.788;12.904;2022-09-09T12:05:00;97205.63;;;20.80;57.46
72038;BME280;59900;50.788;12.904;2022-09-09T12:07:49;97212.06;;;20.74;57.84
72038;BME280;59900;50.788;12.904;2022-09-09T12:10:23;97211.25;;;20.68;57.13
72038;BME280;59900;50.788;12.904;2022-09-09T12:12:51;97209.09;;;20.71;57.32
72038;BME280;59900;50.788;12.904;2022-09-09T12:15:26;97197.88;;;20.74;57.08
72038;BME280;59900;50.788;12.904;2022-09-09T12:17:56;97200.81;;;20.77;57.50
72038;BME280;59900;50.788;12.904;2022-09-09T12:20:35;97204.00;;;20.84;55.55
72038;BME280;59900;50.788;12.904;2022-09-09T12:23:22;97199.47;;;20.95;55.58
72038;BME280;59900;50.788;12.904;2022-09-09T12:29:36;97190.34;;;21.85;53.66
72038;BME280;59900;50.788;12.904;2022-09-09T12:32:10;97188.13;;;22.02;54.41
72038;BME280;59900;50.788;12.904;2022-09-09T12:34:46;97180.03;;;22.17;53.42
72038;BME280;59900;50.788;12.904;2022-09-09T12:37:35;97180.06;;;22.46;52.82
72038;BME280;59900;50.788;12.904;2022-09-09T12:40:03;97181.78;;;22.71;51.81
72038;BME280;59900;50.788;12.904;2022-09-09T12:42:29;97173.47;;;22.96;50.26
72038;BME280;59900;50.788;12.904;2022-09-09T12:45:00;97170.72;;;23.30;50.26
72038;BME280;59900;50.788;12.904;2022-09-09T12:47:38;97172.28;;;23.31;49.98
72038;BME280;59900;50.788;12.904;2022-09-09T12:50:16;97172.66;;;23.72;49.68
72038;BME280;59900;50.788;12.904;2022-09-09T12:52:42;97155.59;;;23.81;48.18
72038;BME280;59900;50.788;12.904;2022-09-09T12:55:18;97164.28;;;23.73;45.76
72038;BME280;59900;50.788;12.904;2022-09-09T12:57:44;97159.84;;;23.45;45.91
72038;BME280;59900;50.788;12.904;2022-09-09T13:00:14;97174.94;;;23.12;46.17
72038;BME280;59900;50.788;12.904;2022-09-09T13:02:48;97168.25;;;22.81;47.28
72038;BME280;59900;50.788;12.904;2022-09-09T13:05:18;97168.50;;;22.84;48.78
72038;BME280;59900;50.788;12.904;2022-09-09T13:07:44;97161.41;;;23.22;48.29
72038;BME280;59900;50.788;12.904;2022-09-09T13:10:14;97160.19;;;23.38;48.59
72038;BME280;59900;50.788;12.904;2022-09-09T13:12:40;97165.84;;;23.32;45.92
72038;BME280;59900;50.788;12.904;2022-09-09T13:15:19;97170.72;;;23.06;46.68
72038;BME280;59900;50.788;12.904;2022-09-09T13:17:50;97170.94;;;22.81;47.28
72038;BME280;59900;50.788;12.904;2022-09-09T13:20:18;97180.78;;;22.57;48.32
72038;BME280;59900;50.788;12.904;2022-09-09T13:22:44;97165.97;;;22.36;48.48
72038;BME280;59900;50.788;12.904;2022-09-09T13:27:39;97168.28;;;22.08;50.11
72038;BME280;59900;50.788;12.904;2022-09-09T13:30:29;97173.44;;;22.00;51.29
72038;BME280;59900;50.788;12.904;2022-09-09T13:35:34;97176.41;;;21.93;51.71
72038;BME280;59900;50.788;12.904;2022-09-09T13:38:07;97162.72;;;22.39;50.69
72038;BME280;59900;50.788;12.904;2022-09-09T13:40:34;97163.16;;;22.84;49.08
72038;BME280;59900;50.788;12.904;2022-09-09T13:42:59;97156.97;;;23.36;47.63
72038;BME280;59900;50.788;12.904;2022-09-09T13:45:26;97149.41;;;23.81;46.92
72038;BME280;59900;50.788;12.904;2022-09-09T13:47:55;97154.22;;;24.03;46.77
72038;BME280;59900;50.788;12.904;2022-09-09T13:52:49;97152.25;;;24.08;46.58
72038;BME280;59900;50.788;12.904;2022-09-09T13:55:17;97140.94;;;24.62;45.14
72038;BME280;59900;50.788;12.904;2022-09-09T13:57:56;97150.69;;;25.04;45.25
72038;BME280;59900;50.788;12.904;2022-09-09T14:00:23;97139.84;;;25.23;43.69
72038;BME280;59900;50.788;12.904;2022-09-09T14:02:49;97143.25;;;25.55;42.47
72038;BME280;59900;50.788;12.904;2022-09-09T14:05:15;97139.75;;;25.55;41.55
72038;BME280;59900;50.788;12.904;2022-09-09T14:07:41;97136.97;;;25.96;40.47
72038;BME280;59900;50.788;12.904;2022-09-09T14:10:07;97127.25;;;26.44;39.79
72038;BME280;59900;50.788;12.904;2022-09-09T14:12:33;97138.75;;;26.58;38.33
72038;BME280;59900;50.788;12.904;2022-09-09T14:14:58;97127.63;;;26.82;38.99
72038;BME280;59900;50.788;12.904;2022-09-09T14:17:25;97120.47;;;26.55;38.54
72038;BME280;59900;50.788;12.904;2022-09-09T14:19:54;97133.03;;;26.60;39.69
72038;BME280;59900;50.788;12.904;2022-09-09T14:22:20;97132.47;;;26.94;39.19
72038;BME280;59900;50.788;12.904;2022-09-09T14:24:45;97136.00;;;27.03;40.18
72038;BME280;59900;50.788;12.904;2022-09-09T14:27:10;97146.38;;;27.18;37.96
72038;BME280;59900;50.788;12.904;2022-09-09T14:29:36;97141.72;;;27.10;38.15
72038;BME280;59900;50.788;12.904;2022-09-09T14:32:01;97126.91;;;27.38;37.90